Terminal Aerodrome Forecast
Issued by NWS

Home | Current Version | Previous Version | Text Only | Print | Product List | Glossary On
Versions: 1 2 3 4 5 6 7 8 9 10 11 12
000
FTUS42 TJSJ 272300
TAFJBQ
TAF
TJBQ 272333Z 2800/2824 10012G20KT P6SM SCT030
     FM280400 10009KT P6SM FEW025
     FM281200 08014G23KT P6SM SCT025
     FM281500 09020G30KT P6SM SCT022
     FM281700 09020G30KT P6SM VCSH SCT025 BKN035
     FM282200 09015G22KT P6SM SCT025 BKN040
      AMD NOT SKED 2802/2811=

USA.gov is the U.S. government's official web portal to all federal, state and local government web resources and services.